Het weer levert geen direct gevaar op.    Er zijn geen waarschuwingen afgegeven.

Regen radar Meer informatie rain snow radar


Bezoek onze andere website:

Template documentation
and downloads

And another site

EUWEATHER.EU


U vindt ons ook hier:

Het Weer Aktueel

UK Metoffice

European Weather Network

WeatherCloud

Weather Underground

Benelux Weer Netwerk

AWEKAS

WeatherlinkIP

HAMweather, WeatherForYou, PWS Weather

Wetter.com



METAR rapporten vliegvelden

   
EBAW - Antwerp
Gewijzigd: 23-04-2021 19:50
Helder  
Helder  
   Wind: NO 14.8 km/h
Wind: NO 14.8 km/h
Temperatuur: 13°C
Dauwpunt: 1°C
Vochtigheid: 44%
Barometer: 1027 hPa
Zicht: meer dan 10 km
Bewolking: Helder
EBAW 231750Z 05008KT CAVOK 13/01 Q1027 NOSIG
EBLG - Li├Ęge
Gewijzigd: 23-04-2021 19:50
Helder  
Helder  
   Wind: ONO 11.1 km/h
Wind: ONO 11.1 km/h
Temperatuur: 12°C
Dauwpunt: 1°C
Vochtigheid: 47%
Barometer: 1027 hPa
Zicht: meer dan 10 km
Bewolking: Helder
EBLG 231750Z 06006KT 020V100 CAVOK 12/01 Q1027 NOSIG
EBCV - Mons/Bergen
Gewijzigd: 23-04-2021 19:55
Helder  
Helder  
   Wind: NNO 20.4 km/h
Wind: NNO 20.4 km/h
Temperatuur: 14°C
Dauwpunt: 1°C
Vochtigheid: 41%
Barometer: 1026 hPa
Bewolking: Helder
Zicht: meer dan 10 km
Bewolking: Helder
EBCV 231755Z AUTO 03011KT 9999 NCD 14/01 Q1026 BLU
EHBK - Maastricht
Gewijzigd: 23-04-2021 19:55
Helder  
Helder  
   Wind: Noorden 11.1 km/h
Wind: Noorden 11.1 km/h
Temperatuur: 12°C
Dauwpunt: 2°C
Vochtigheid: 51%
Barometer: 1026 hPa
Bewolking: Helder
Zicht: meer dan 10 km
Bewolking: Helder
EHBK 231755Z AUTO 01006KT 330V030 9999 NCD 12/02 Q1026 NOSIG
ELLX - Luxemburg
Gewijzigd: 23-04-2021 19:50
Helder  
Helder  
   Wind: ONO 14.8 km/h
Wind: ONO 14.8 km/h
Temperatuur: 13°C
Dauwpunt: -1°C
Vochtigheid: 38%
Barometer: 1024 hPa
Zicht: meer dan 10 km
Bewolking: Helder
ELLX 231750Z 06008KT CAVOK 13/M01 Q1024 NOSIG
EBOS - Oostende
Gewijzigd: 23-04-2021 19:50
Helder  
Helder  
   Wind: NO 20.4 km/h
Wind: NO 20.4 km/h
Temperatuur: 9°C
Voelt als: 6°C
Dauwpunt: 4°C
Vochtigheid: 71%
Barometer: 1028 hPa
Zicht: meer dan 10 km
Bewolking: Helder
EBOS 231750Z 04011KT CAVOK 09/04 Q1028 NOSIG

Script ontwikkeld door  Saratoga-weather.org Aangepast voor de template door  Weerstation Leuven

Apparatuur in gebruik:

Weerstation
Davis VP2

Weerprogramma
Meteobridge

Weercomputer
Asus WL -330N3G

Webleverancier
Onecom

Davis VP2

Meteobridge

Asus WL -330N3G

Onecom